createdAt,value
2023-01-29T00:01:55.469Z,28.67
2023-01-29T00:04:22.892Z,26.15
2023-01-29T00:06:50.075Z,28.50
2023-01-29T00:09:17.034Z,28.88
2023-01-29T00:11:43.787Z,27.33
2023-01-29T00:14:11.191Z,28.33
2023-01-29T00:16:38.130Z,29.20
2023-01-29T00:19:05.775Z,27.23
2023-01-29T00:21:32.624Z,29.25
2023-01-29T00:23:59.962Z,30.27
2023-01-29T00:26:27.358Z,28.38
2023-01-29T00:28:54.629Z,25.42
2023-01-29T00:31:23.085Z,26.85
2023-01-29T00:33:50.193Z,26.55
2023-01-29T00:36:18.495Z,24.50
2023-01-29T00:38:54.561Z,23.80
2023-01-29T00:41:41.761Z,24.20
2023-01-29T00:44:27.253Z,25.15
2023-01-29T00:46:54.810Z,23.85
2023-01-29T00:49:21.885Z,24.50
2023-01-29T00:52:12.706Z,25.55
2023-01-29T00:54:39.483Z,25.80
2023-01-29T00:57:06.285Z,25.77
2023-01-29T00:59:33.028Z,27.55
2023-01-29T01:02:18.447Z,26.33
2023-01-29T01:04:45.501Z,25.55
2023-01-29T01:09:57.178Z,26.60
2023-01-29T01:12:23.986Z,25.02
2023-01-29T01:14:50.792Z,26.88
2023-01-29T01:17:17.551Z,26.08
2023-01-29T01:19:44.510Z,27.33
2023-01-29T01:22:11.502Z,26.50
2023-01-29T01:24:38.374Z,24.38
2023-01-29T01:27:05.359Z,24.67
2023-01-29T01:29:32.117Z,25.35
2023-01-29T01:31:59.825Z,22.95
2023-01-29T01:34:29.540Z,23.05
2023-01-29T01:36:56.472Z,21.42
2023-01-29T01:39:25.488Z,22.60
2023-01-29T01:41:55.795Z,21.98
2023-01-29T01:44:42.572Z,22.75
2023-01-29T01:47:09.450Z,21.88
2023-01-29T01:49:36.311Z,22.23
2023-01-29T01:52:03.251Z,22.73
2023-01-29T01:54:31.953Z,22.13
2023-01-29T01:57:09.272Z,23.23
2023-01-29T01:59:37.644Z,24.25
2023-01-29T02:02:23.639Z,24.17
2023-01-29T02:05:09.253Z,22.67
2023-01-29T02:07:58.923Z,23.42
2023-01-29T02:10:26.476Z,22.58
2023-01-29T02:12:54.228Z,23.83
2023-01-29T02:15:20.945Z,22.17
2023-01-29T02:17:49.449Z,22.80
2023-01-29T02:20:24.440Z,23.25
2023-01-29T02:23:12.788Z,24.50
2023-01-29T02:25:45.998Z,22.85
2023-01-29T02:28:13.063Z,22.45
2023-01-29T02:31:00.610Z,23.00
2023-01-29T02:33:27.384Z,22.90
2023-01-29T02:36:03.983Z,23.27
2023-01-29T02:38:44.220Z,24.42
2023-01-29T02:41:11.017Z,22.98
2023-01-29T02:43:47.482Z,20.85
2023-01-29T02:46:38.041Z,23.55
2023-01-29T02:49:18.637Z,21.63
2023-01-29T02:51:51.616Z,21.60
2023-01-29T02:54:37.059Z,23.57
2023-01-29T02:57:16.344Z,21.65
2023-01-29T02:59:53.148Z,21.55
2023-01-29T03:02:40.341Z,23.80
2023-01-29T03:05:12.781Z,23.70
2023-01-29T03:07:42.587Z,23.17
2023-01-29T03:10:21.010Z,24.45
2023-01-29T03:12:51.461Z,23.30
2023-01-29T03:15:25.211Z,20.00
2023-01-29T03:18:18.052Z,23.05
2023-01-29T03:20:49.196Z,23.65
2023-01-29T03:23:27.350Z,23.08
2023-01-29T03:26:15.294Z,24.02
2023-01-29T03:29:02.042Z,24.83
2023-01-29T03:31:48.498Z,23.20
2023-01-29T03:34:24.553Z,20.83
2023-01-29T03:36:58.164Z,21.27
2023-01-29T03:39:28.430Z,23.63
2023-01-29T03:42:02.678Z,19.25
2023-01-29T03:46:59.245Z,18.23
2023-01-29T03:49:28.835Z,18.85
2023-01-29T03:52:11.436Z,18.95
2023-01-29T03:54:44.467Z,17.45
2023-01-29T03:57:20.980Z,16.33
2023-01-29T03:59:49.091Z,17.42
2023-01-29T04:02:38.949Z,18.27
2023-01-29T04:05:15.060Z,17.80
2023-01-29T04:07:57.754Z,19.55
2023-01-29T04:10:27.053Z,20.33
2023-01-29T04:12:59.554Z,22.40
2023-01-29T04:15:28.427Z,23.92
2023-01-29T04:17:56.423Z,23.40
2023-01-29T04:20:55.518Z,20.63
2023-01-29T04:23:23.532Z,20.92
2023-01-29T04:26:09.820Z,19.08
2023-01-29T04:28:44.127Z,19.92
2023-01-29T04:31:12.235Z,19.88
2023-01-29T04:33:51.307Z,20.05
2023-01-29T04:36:35.577Z,21.55
2023-01-29T04:39:18.090Z,23.80
2023-01-29T04:42:00.180Z,23.30
2023-01-29T04:44:27.593Z,24.77
2023-01-29T04:47:04.231Z,24.08
2023-01-29T04:49:49.904Z,21.00
2023-01-29T04:52:28.970Z,20.73
2023-01-29T04:54:58.724Z,22.23
2023-01-29T04:57:46.369Z,24.55
2023-01-29T05:00:18.342Z,21.08
2023-01-29T05:02:45.567Z,21.88
2023-01-29T05:05:13.667Z,21.50
2023-01-29T05:07:43.042Z,21.48
2023-01-29T05:10:10.844Z,22.83
2023-01-29T05:12:38.497Z,23.33
2023-01-29T05:15:09.533Z,23.25
2023-01-29T05:17:36.377Z,21.90
2023-01-29T05:20:03.226Z,22.13
2023-01-29T05:22:30.699Z,20.70
2023-01-29T05:24:57.401Z,22.02
2023-01-29T05:27:49.849Z,21.15
2023-01-29T05:30:17.133Z,22.98
2023-01-29T05:32:44.156Z,23.25
2023-01-29T05:35:11.110Z,22.90
2023-01-29T05:37:38.152Z,25.48
2023-01-29T05:40:05.353Z,22.95
2023-01-29T05:42:32.660Z,23.27
2023-01-29T05:44:59.767Z,22.13
2023-01-29T05:47:27.024Z,24.65
2023-01-29T05:49:53.949Z,24.08
2023-01-29T05:52:20.706Z,25.50
2023-01-29T05:54:47.682Z,23.67
2023-01-29T05:57:15.008Z,22.83
2023-01-29T05:59:41.756Z,22.75
2023-01-29T06:02:08.601Z,25.50
2023-01-29T06:04:35.432Z,28.00
2023-01-29T06:07:03.473Z,28.08
2023-01-29T06:09:30.277Z,27.92
2023-01-29T06:11:57.190Z,28.02
2023-01-29T06:14:23.905Z,24.15
2023-01-29T06:16:50.801Z,23.95
2023-01-29T06:19:18.277Z,24.60
2023-01-29T06:21:44.984Z,25.10
2023-01-29T06:24:11.837Z,23.23
2023-01-29T06:26:39.116Z,22.55
2023-01-29T06:29:05.910Z,22.80
2023-01-29T06:31:38.674Z,25.50
2023-01-29T06:34:06.421Z,23.73
2023-01-29T06:36:33.242Z,25.23
2023-01-29T06:38:59.986Z,23.33
2023-01-29T06:41:26.785Z,23.48
2023-01-29T06:43:53.530Z,24.98
2023-01-29T06:46:20.456Z,24.08
2023-01-29T06:48:47.282Z,23.02
2023-01-29T06:51:14.019Z,24.42
2023-01-29T06:53:40.856Z,24.92
2023-01-29T06:56:07.870Z,23.50
2023-01-29T06:58:38.443Z,24.48
2023-01-29T07:01:09.864Z,24.05
2023-01-29T07:03:37.280Z,25.35
2023-01-29T07:06:04.754Z,27.60
2023-01-29T07:08:31.762Z,27.70
2023-01-29T07:11:02.415Z,24.33
2023-01-29T07:13:29.360Z,23.85
2023-01-29T07:16:00.589Z,25.13
2023-01-29T07:18:27.914Z,25.90
2023-01-29T07:20:54.916Z,26.58
2023-01-29T07:23:22.994Z,24.58
2023-01-29T07:25:50.021Z,25.63
2023-01-29T07:28:20.717Z,24.27
2023-01-29T07:30:48.693Z,24.45
2023-01-29T07:33:15.488Z,24.27
2023-01-29T07:35:43.314Z,23.17
2023-01-29T07:38:11.195Z,23.27
2023-01-29T07:40:39.144Z,24.77
2023-01-29T07:43:07.163Z,24.25
2023-01-29T07:45:35.523Z,24.77
2023-01-29T07:48:04.937Z,23.88
2023-01-29T07:50:32.772Z,24.33
2023-01-29T07:52:59.622Z,23.90
2023-01-29T07:55:26.494Z,24.67
2023-01-29T07:57:57.161Z,24.13
2023-01-29T08:00:24.556Z,25.15
2023-01-29T08:02:51.933Z,24.48
2023-01-29T08:05:18.958Z,25.95
2023-01-29T08:07:51.563Z,26.67
2023-01-29T08:10:28.509Z,25.77
2023-01-29T08:12:56.146Z,27.33
2023-01-29T08:15:23.468Z,26.73
2023-01-29T08:20:37.180Z,27.42
2023-01-29T08:23:08.416Z,26.67
2023-01-29T08:25:35.758Z,27.50
2023-01-29T08:28:02.642Z,28.73
2023-01-29T08:30:31.247Z,26.95
2023-01-29T08:32:58.416Z,28.13
2023-01-29T08:35:26.157Z,29.33
2023-01-29T08:37:58.106Z,36.08
2023-01-29T08:40:25.487Z,32.25
2023-01-29T08:42:52.860Z,36.30
2023-01-29T08:45:20.065Z,42.63
2023-01-29T08:47:47.763Z,44.03
2023-01-29T08:50:15.562Z,39.28
2023-01-29T08:52:43.098Z,38.63
2023-01-29T08:55:10.330Z,44.17
2023-01-29T08:57:38.349Z,32.70
2023-01-29T09:00:06.514Z,35.78
2023-01-29T09:02:33.633Z,33.92
2023-01-29T09:05:00.812Z,32.55
2023-01-29T09:07:29.770Z,32.97
2023-01-29T09:09:57.403Z,31.63
2023-01-29T09:12:24.486Z,31.17
2023-01-29T09:14:51.617Z,32.10
2023-01-29T09:17:19.006Z,32.88
2023-01-29T09:19:46.191Z,32.15
2023-01-29T09:22:13.547Z,31.77
2023-01-29T09:24:40.726Z,32.15
2023-01-29T09:27:07.965Z,35.67
2023-01-29T09:29:35.976Z,32.70
2023-01-29T09:32:05.710Z,33.58
2023-01-29T09:34:34.443Z,34.13
2023-01-29T09:37:02.320Z,35.25
2023-01-29T09:39:29.790Z,35.80
2023-01-29T09:42:38.626Z,34.28
2023-01-29T09:45:16.917Z,34.50
2023-01-29T09:47:44.890Z,37.17
2023-01-29T09:50:20.562Z,34.95
2023-01-29T09:52:50.821Z,33.38
2023-01-29T09:55:23.784Z,35.15
2023-01-29T09:57:55.199Z,35.47
2023-01-29T10:00:31.584Z,35.25
2023-01-29T10:03:24.644Z,35.85
2023-01-29T10:05:51.818Z,34.97
2023-01-29T10:08:40.576Z,36.08
2023-01-29T10:11:19.559Z,34.10
2023-01-29T10:14:00.565Z,36.78
2023-01-29T10:16:45.908Z,34.20
2023-01-29T10:19:15.713Z,36.03
2023-01-29T10:22:08.776Z,35.15
2023-01-29T10:24:53.994Z,34.33
2023-01-29T10:27:21.741Z,33.80
2023-01-29T10:29:51.193Z,34.53
2023-01-29T10:32:19.212Z,35.90
2023-01-29T10:34:49.908Z,41.03
2023-01-29T10:37:24.339Z,34.45
2023-01-29T10:39:51.914Z,35.58
2023-01-29T10:42:21.965Z,33.45
2023-01-29T10:45:07.528Z,34.20
2023-01-29T10:47:49.564Z,38.22
2023-01-29T10:50:18.698Z,34.72
2023-01-29T10:53:01.046Z,34.50
2023-01-29T10:55:30.876Z,35.30
2023-01-29T10:58:03.630Z,34.10
2023-01-29T11:00:33.469Z,34.35
2023-01-29T11:03:12.503Z,35.55
2023-01-29T11:05:51.451Z,31.83
2023-01-29T11:08:21.375Z,31.20
2023-01-29T11:11:07.327Z,32.00
2023-01-29T11:13:38.019Z,33.67
2023-01-29T11:16:05.330Z,36.35
2023-01-29T11:18:49.007Z,35.25
2023-01-29T11:21:16.187Z,31.55
2023-01-29T11:23:43.005Z,29.35
2023-01-29T11:26:12.267Z,30.23
2023-01-29T11:28:43.372Z,30.38
2023-01-29T11:31:21.486Z,28.05
2023-01-29T11:33:48.792Z,27.33
2023-01-29T11:36:32.964Z,29.13
2023-01-29T11:41:26.564Z,24.73
2023-01-29T11:43:53.336Z,25.38
2023-01-29T11:46:20.087Z,25.45
2023-01-29T11:48:59.139Z,28.35
2023-01-29T11:51:33.377Z,26.75
2023-01-29T11:54:01.920Z,26.80
2023-01-29T11:56:44.735Z,25.17
2023-01-29T11:59:27.316Z,24.90
2023-01-29T12:01:54.347Z,26.13
2023-01-29T12:04:23.523Z,26.17
2023-01-29T12:06:52.997Z,25.02
2023-01-29T12:09:22.048Z,25.05
2023-01-29T12:11:48.811Z,23.80
2023-01-29T12:14:27.133Z,22.27
2023-01-29T12:16:56.491Z,22.80
2023-01-29T12:19:23.989Z,24.92
2023-01-29T12:21:55.666Z,26.10
2023-01-29T12:24:30.272Z,24.20
2023-01-29T12:27:06.228Z,24.90
2023-01-29T12:30:05.508Z,22.10
2023-01-29T12:32:35.890Z,21.65
2023-01-29T12:35:18.467Z,23.45
2023-01-29T12:37:48.375Z,23.45
2023-01-29T12:40:17.073Z,24.67
2023-01-29T12:42:52.123Z,23.55
2023-01-29T12:45:20.020Z,22.35
2023-01-29T12:47:57.017Z,22.60
2023-01-29T12:50:24.372Z,24.15
2023-01-29T12:53:03.263Z,23.55
2023-01-29T12:55:37.037Z,24.55
2023-01-29T13:00:36.953Z,21.98
2023-01-29T13:03:03.849Z,21.50
2023-01-29T13:05:41.409Z,24.25
2023-01-29T13:08:16.153Z,23.98
2023-01-29T13:10:45.380Z,25.10
2023-01-29T13:13:15.019Z,25.17
2023-01-29T13:15:44.214Z,27.13
2023-01-29T13:18:29.674Z,26.25
2023-01-29T13:20:56.588Z,24.00
2023-01-29T13:23:28.517Z,23.02
2023-01-29T13:25:55.269Z,24.23
2023-01-29T13:28:23.740Z,22.35
2023-01-29T13:31:10.743Z,22.40
2023-01-29T13:33:37.967Z,17.98
2023-01-29T13:36:05.046Z,18.65
2023-01-29T13:38:33.542Z,19.55
2023-01-29T13:41:01.424Z,21.65
2023-01-29T13:43:31.384Z,20.85
2023-01-29T13:45:58.289Z,20.50
2023-01-29T13:48:27.595Z,19.60
2023-01-29T13:51:00.918Z,21.65
2023-01-29T13:53:29.465Z,22.17
2023-01-29T13:56:16.153Z,22.55
2023-01-29T13:58:46.399Z,21.98
2023-01-29T14:01:13.567Z,20.73
2023-01-29T14:04:03.242Z,21.15
2023-01-29T14:06:41.934Z,21.17
2023-01-29T14:09:28.125Z,20.02
2023-01-29T14:11:55.000Z,20.48
2023-01-29T14:14:40.728Z,18.38
2023-01-29T14:17:07.712Z,19.33
2023-01-29T14:19:34.474Z,16.77
2023-01-29T14:22:01.255Z,17.67
2023-01-29T14:24:30.558Z,17.10
2023-01-29T14:26:57.840Z,17.63
2023-01-29T14:29:34.450Z,18.63
2023-01-29T14:32:07.716Z,18.33
2023-01-29T14:34:43.653Z,18.05
2023-01-29T14:37:13.411Z,18.85
2023-01-29T14:39:44.880Z,17.90
2023-01-29T14:42:21.158Z,17.92
2023-01-29T14:44:58.221Z,18.85
2023-01-29T14:47:27.995Z,18.13
2023-01-29T14:49:56.128Z,16.48
2023-01-29T14:52:26.923Z,19.30
2023-01-29T14:54:57.451Z,18.77
2023-01-29T14:57:25.634Z,18.65
2023-01-29T15:00:05.498Z,17.63
2023-01-29T15:02:37.855Z,19.55
2023-01-29T15:05:07.450Z,18.50
2023-01-29T15:07:39.792Z,19.30
2023-01-29T15:10:22.827Z,17.77
2023-01-29T15:12:58.265Z,17.45
2023-01-29T15:15:27.098Z,18.13
2023-01-29T15:18:00.885Z,17.98
2023-01-29T15:20:34.116Z,18.50
2023-01-29T15:23:03.377Z,18.45
2023-01-29T15:25:48.160Z,19.13
2023-01-29T15:28:15.528Z,19.52
2023-01-29T15:30:43.777Z,20.10
2023-01-29T15:33:11.683Z,19.20
2023-01-29T15:35:39.862Z,19.90
2023-01-29T15:38:14.408Z,21.23
2023-01-29T15:40:41.483Z,20.90
2023-01-29T15:43:22.832Z,20.80
2023-01-29T15:45:50.755Z,22.85
2023-01-29T15:48:19.669Z,26.23
2023-01-29T15:50:46.489Z,23.85
2023-01-29T15:53:15.893Z,21.92
2023-01-29T15:55:43.220Z,20.90
2023-01-29T15:58:16.428Z,19.80
2023-01-29T16:00:53.476Z,22.95
2023-01-29T16:03:22.130Z,20.95
2023-01-29T16:05:49.667Z,23.33
2023-01-29T16:08:16.716Z,22.77
2023-01-29T16:10:45.113Z,26.33
2023-01-29T16:13:22.338Z,21.60
2023-01-29T16:15:59.549Z,21.50
2023-01-29T16:18:36.921Z,20.77
2023-01-29T16:21:09.876Z,19.77
2023-01-29T16:23:40.434Z,19.92
2023-01-29T16:26:08.582Z,20.33
2023-01-29T16:28:45.051Z,28.17
2023-01-29T16:31:13.965Z,27.10
2023-01-29T16:33:42.683Z,24.65
2023-01-29T16:36:15.811Z,23.10
2023-01-29T16:38:45.954Z,20.98
2023-01-29T16:41:21.864Z,20.85
2023-01-29T16:43:48.751Z,20.70
2023-01-29T16:46:20.559Z,20.63
2023-01-29T16:48:47.776Z,21.10
2023-01-29T16:51:20.490Z,19.55
2023-01-29T16:53:55.771Z,19.23
2023-01-29T16:56:26.050Z,20.08
2023-01-29T16:58:54.001Z,19.33
2023-01-29T17:01:23.370Z,18.40
2023-01-29T17:03:55.193Z,20.52
2023-01-29T17:06:24.213Z,19.50
2023-01-29T17:08:51.463Z,25.55
2023-01-29T17:11:37.774Z,23.02
2023-01-29T17:14:05.995Z,21.50
2023-01-29T17:16:34.292Z,28.35
2023-01-29T17:19:01.564Z,26.13
2023-01-29T17:21:29.729Z,23.05
2023-01-29T17:23:57.035Z,21.30
2023-01-29T17:26:24.863Z,25.65
2023-01-29T17:28:52.337Z,21.08
2023-01-29T17:31:19.269Z,20.23
2023-01-29T17:33:46.173Z,21.67
2023-01-29T17:36:15.329Z,24.48
2023-01-29T17:38:42.588Z,22.23
2023-01-29T17:41:13.449Z,21.88
2023-01-29T17:43:40.205Z,23.98
2023-01-29T17:46:09.416Z,23.38
2023-01-29T17:48:36.159Z,22.33
2023-01-29T17:51:04.535Z,23.02
2023-01-29T17:53:44.922Z,21.88
2023-01-29T17:56:17.052Z,21.77
2023-01-29T17:58:44.019Z,23.52
2023-01-29T18:01:10.958Z,22.02
2023-01-29T18:03:37.693Z,22.92
2023-01-29T18:06:07.013Z,23.25
2023-01-29T18:08:35.376Z,23.02
2023-01-29T18:11:02.136Z,23.35
2023-01-29T18:13:28.973Z,22.67
2023-01-29T18:15:55.819Z,25.85
2023-01-29T18:18:23.709Z,24.15
2023-01-29T18:20:51.628Z,24.67
2023-01-29T18:23:18.506Z,27.33
2023-01-29T18:25:45.509Z,27.20
2023-01-29T18:28:17.055Z,27.30
2023-01-29T18:30:47.547Z,30.13
2023-01-29T18:33:15.297Z,28.33
2023-01-29T18:35:43.973Z,33.33
2023-01-29T18:38:10.907Z,30.75
2023-01-29T18:40:37.586Z,29.38
2023-01-29T18:43:04.317Z,25.02
2023-01-29T18:45:31.356Z,26.08
2023-01-29T18:47:58.095Z,26.17
2023-01-29T18:50:26.367Z,26.58
2023-01-29T18:52:53.752Z,25.02
2023-01-29T18:55:20.862Z,27.13
2023-01-29T18:58:33.510Z,31.73
2023-01-29T19:00:34.420Z,31.92
2023-01-29T19:03:01.200Z,29.15
2023-01-29T19:05:28.024Z,32.22
2023-01-29T19:07:54.855Z,32.03
2023-01-29T19:10:21.596Z,35.67
2023-01-29T19:12:48.309Z,36.67
2023-01-29T19:15:16.369Z,28.55
2023-01-29T19:17:43.259Z,29.90
2023-01-29T19:20:13.536Z,30.50
2023-01-29T19:22:40.694Z,29.83
2023-01-29T19:25:07.559Z,25.88
2023-01-29T19:27:34.291Z,27.38
2023-01-29T19:30:02.084Z,29.75
2023-01-29T19:32:31.889Z,32.22
2023-01-29T19:34:58.601Z,31.77
2023-01-29T19:37:25.585Z,31.98
2023-01-29T19:39:53.678Z,30.33
2023-01-29T19:42:20.959Z,27.40
2023-01-29T19:44:47.747Z,27.15
2023-01-29T19:47:14.646Z,26.88
2023-01-29T19:49:41.486Z,26.83
2023-01-29T19:52:14.978Z,26.92
2023-01-29T19:54:48.026Z,28.33
2023-01-29T19:57:14.768Z,33.40
2023-01-29T19:59:44.215Z,32.88
2023-01-29T20:02:12.387Z,29.38
2023-01-29T20:04:39.196Z,28.13
2023-01-29T20:07:05.873Z,27.92
2023-01-29T20:09:32.587Z,29.05
2023-01-29T20:11:59.339Z,29.42
2023-01-29T20:14:26.068Z,26.67
2023-01-29T20:16:53.971Z,27.17
2023-01-29T20:19:20.666Z,28.50
2023-01-29T20:21:48.951Z,27.80
2023-01-29T20:24:15.850Z,28.77
2023-01-29T20:26:42.771Z,27.92
2023-01-29T20:29:11.967Z,29.23
2023-01-29T20:31:38.849Z,28.63
2023-01-29T20:34:05.639Z,29.23
2023-01-29T20:36:32.458Z,27.85
2023-01-29T20:38:59.369Z,38.53
2023-01-29T20:41:26.367Z,28.67
2023-01-29T20:43:53.141Z,28.90
2023-01-29T20:46:20.454Z,32.03
2023-01-29T20:48:49.141Z,32.65
2023-01-29T20:51:17.889Z,31.98
2023-01-29T20:53:46.357Z,32.03
2023-01-29T20:56:14.817Z,31.90
2023-01-29T20:58:42.272Z,33.72
2023-01-29T21:01:09.949Z,32.70
2023-01-29T21:03:40.240Z,29.98
2023-01-29T21:06:09.219Z,30.73
2023-01-29T21:08:36.411Z,32.10
2023-01-29T21:11:07.468Z,35.08
2023-01-29T21:13:34.487Z,30.70
2023-01-29T21:16:02.291Z,31.23
2023-01-29T21:18:29.319Z,29.23
2023-01-29T21:20:56.175Z,31.88
2023-01-29T21:23:22.929Z,45.00
2023-01-29T21:25:49.710Z,54.00
2023-01-29T21:28:16.895Z,47.90
2023-01-29T21:30:44.212Z,43.22
2023-01-29T21:33:11.373Z,38.80
2023-01-29T21:35:38.494Z,30.10
2023-01-29T21:38:05.695Z,28.80
2023-01-29T21:40:32.927Z,26.48
2023-01-29T21:43:11.984Z,25.23
2023-01-29T21:45:39.313Z,29.42
2023-01-29T21:48:06.125Z,25.83
2023-01-29T21:50:32.963Z,25.42
2023-01-29T21:53:00.142Z,25.25
2023-01-29T21:55:27.102Z,23.52
2023-01-29T21:57:53.936Z,25.77
2023-01-29T22:00:20.949Z,25.35
2023-01-29T22:02:49.912Z,24.45
2023-01-29T22:05:19.805Z,26.08
2023-01-29T22:07:47.925Z,27.85
2023-01-29T22:10:16.025Z,26.83
2023-01-29T22:12:44.626Z,26.55
2023-01-29T22:15:11.842Z,25.55
2023-01-29T22:17:41.831Z,28.42
2023-01-29T22:20:12.001Z,29.48
2023-01-29T22:22:38.891Z,27.38
2023-01-29T22:25:05.907Z,29.73
2023-01-29T22:27:33.645Z,26.33
2023-01-29T22:30:00.501Z,27.70
2023-01-29T22:32:27.448Z,28.73
2023-01-29T22:34:54.245Z,26.10
2023-01-29T22:37:21.067Z,26.23
2023-01-29T22:39:47.902Z,27.80
2023-01-29T22:42:15.865Z,26.98
2023-01-29T22:44:42.726Z,31.08
2023-01-29T22:47:09.501Z,34.78
2023-01-29T22:49:37.519Z,31.40
2023-01-29T22:52:10.670Z,34.65
2023-01-29T22:54:42.263Z,30.73
2023-01-29T22:57:13.113Z,30.33
2023-01-29T22:59:40.427Z,26.92
2023-01-29T23:02:08.360Z,27.25
2023-01-29T23:04:35.455Z,29.05
2023-01-29T23:07:02.308Z,30.20
2023-01-29T23:09:29.116Z,31.42
2023-01-29T23:11:55.862Z,28.80
2023-01-29T23:14:22.538Z,27.88
2023-01-29T23:16:49.201Z,28.63
2023-01-29T23:19:15.964Z,26.55
2023-01-29T23:21:42.712Z,28.13
2023-01-29T23:24:09.875Z,27.35
2023-01-29T23:26:54.978Z,27.35
2023-01-29T23:29:21.983Z,27.58
2023-01-29T23:31:51.804Z,27.42
2023-01-29T23:34:18.583Z,24.92
2023-01-29T23:36:45.321Z,27.80
2023-01-29T23:39:12.100Z,27.83
2023-01-29T23:41:40.295Z,27.13
2023-01-29T23:44:07.131Z,26.75
2023-01-29T23:46:33.870Z,28.75
2023-01-29T23:49:01.176Z,27.70
2023-01-29T23:51:28.193Z,27.10
2023-01-29T23:53:55.389Z,27.98
2023-01-29T23:56:22.515Z,27.05
2023-01-29T23:58:52.858Z,28.15
